To NAV CANADA Home Page Login to a new session Search on AWWS site Feedback and Comments Disclaimer Vers la page française équivalente Tips FAQ What's new on the site To the Forecasts and Observations / NOTAM section To "File a Flight Plan" website Publications and other links Update of the User's profile FIC Telephone Numbers My Weather Data Folder Route Weather Data Regional Weather Data Local Weather Data To the Forecasts and Observations / NOTAM section
Request Generated 04/21/2014 at 00:03:19 UTC . Weather information available at that time is displayed.

METAR/TAF

MONCTON/GREATER MONCTON INTL/NB    

METAR CYQM 210000Z 17006KT 15SM FEW140 SCT240 04/M04 A3030 RMK AC2CI2
SLP265=
METAR CYQM 202300Z 16006KT 15SM FEW140 BKN240 06/M05 A3030 RMK AC2CI3
SLP265=
METAR CYQM 202200Z 21005KT 15SM FEW150 BKN240 09/M10 A3031 RMK AC2CI5
SLP266=

TAF CYQM 202338Z 2100/2124 17007KT P6SM FEW150 SCT220
BECMG 2101/2103 21007KT
FM211200 20007KT P6SM SCT100
BECMG 2113/2115 20010G20KT
FM211700 20010G20KT P6SM BKN100
FM212300 23010KT P6SM SCT040
RMK NXT FCST BY 210600Z=
Your time UTC time
Weather data provided by Environment Canada and NAV CANADA